Terminal Aerodrome Forecast
Issued by NWS Pueblo, CO

Home | Current Version | Previous Version | Text Only | Print | Product List | Glossary On
Versions: 1 2 3 4 5 6 7 8 9 10 11 12 13 14 15 16 17 18 19 20 21 22 23
000
FTUS45 KPUB 191137
TAFALS
TAF
KALS 191137Z 1912/2012 VRB05KT P6SM SCT200
     FM192000 VRB06KT P6SM SCT100 SCT200
     FM200200 VRB05KT P6SM SCT080 BKN200=

USA.gov is the U.S. government's official web portal to all federal, state and local government web resources and services.